createdAt,value
2023-03-14T00:01:15.040Z,7.56
2023-03-14T00:03:42.186Z,7.71
2023-03-14T00:06:09.668Z,7.38
2023-03-14T00:08:36.409Z,7.39
2023-03-14T00:11:10.846Z,7.60
2023-03-14T00:13:37.750Z,7.66
2023-03-14T00:16:16.005Z,7.38
2023-03-14T00:18:42.886Z,7.67
2023-03-14T00:21:11.510Z,7.90
2023-03-14T00:23:39.004Z,7.75
2023-03-14T00:26:15.620Z,8.15
2023-03-14T00:28:45.200Z,8.27
2023-03-14T00:31:14.330Z,8.31
2023-03-14T00:33:45.140Z,8.54
2023-03-14T00:36:16.916Z,8.53
2023-03-14T00:38:47.592Z,8.08
2023-03-14T00:41:17.184Z,8.48
2023-03-14T00:43:45.176Z,7.81
2023-03-14T00:46:12.697Z,7.82
2023-03-14T00:48:42.210Z,7.67
2023-03-14T00:51:09.401Z,7.87
2023-03-14T00:53:36.749Z,8.17
2023-03-14T00:56:04.926Z,7.59
2023-03-14T00:58:32.899Z,7.54
2023-03-14T01:01:00.018Z,7.61
2023-03-14T01:03:27.033Z,7.75
2023-03-14T01:05:54.116Z,7.73
2023-03-14T01:08:21.190Z,8.10
2023-03-14T01:10:47.968Z,7.88
2023-03-14T01:13:17.582Z,8.12
2023-03-14T01:15:45.659Z,7.87
2023-03-14T01:18:12.867Z,7.56
2023-03-14T01:20:39.594Z,7.70
2023-03-14T01:23:06.692Z,7.48
2023-03-14T01:25:36.337Z,7.81
2023-03-14T01:28:05.888Z,7.83
2023-03-14T01:30:33.146Z,7.45
2023-03-14T01:32:59.922Z,8.08
2023-03-14T01:35:27.022Z,8.07
2023-03-14T01:37:53.809Z,8.15
2023-03-14T01:40:20.932Z,8.34
2023-03-14T01:42:54.994Z,8.37
2023-03-14T01:46:00.265Z,8.02
2023-03-14T01:48:31.871Z,7.97
2023-03-14T01:50:59.651Z,7.77
2023-03-14T01:53:26.474Z,7.99
2023-03-14T01:55:53.571Z,8.33
2023-03-14T01:58:20.616Z,7.87
2023-03-14T02:00:47.448Z,7.49
2023-03-14T02:03:18.498Z,7.74
2023-03-14T02:05:45.634Z,7.44
2023-03-14T02:08:14.118Z,7.55
2023-03-14T02:10:43.922Z,7.29
2023-03-14T02:13:11.077Z,7.12
2023-03-14T02:15:38.121Z,7.17
2023-03-14T02:18:05.289Z,7.14
2023-03-14T02:20:54.386Z,7.16
2023-03-14T02:23:47.125Z,7.17
2023-03-14T02:26:22.067Z,7.26
2023-03-14T02:28:48.808Z,7.47
2023-03-14T02:31:15.887Z,7.23
2023-03-14T02:33:42.930Z,7.56
2023-03-14T02:36:12.717Z,7.45
2023-03-14T02:38:56.706Z,7.99
2023-03-14T02:41:25.694Z,8.30
2023-03-14T02:43:52.812Z,8.22
2023-03-14T02:46:20.294Z,8.51
2023-03-14T02:48:56.746Z,8.64
2023-03-14T02:51:23.884Z,8.82
2023-03-14T02:53:50.938Z,8.97
2023-03-14T02:56:18.027Z,8.56
2023-03-14T02:58:45.036Z,8.46
2023-03-14T03:01:11.778Z,8.20
2023-03-14T03:03:38.866Z,8.33
2023-03-14T03:06:05.997Z,8.41
2023-03-14T03:08:33.174Z,8.16
2023-03-14T03:11:02.574Z,7.97
2023-03-14T03:13:29.325Z,8.27
2023-03-14T03:15:56.304Z,8.27
2023-03-14T03:18:23.386Z,8.03
2023-03-14T03:20:50.125Z,7.90
2023-03-14T03:23:17.173Z,7.98
2023-03-14T03:25:50.276Z,7.80
2023-03-14T03:28:18.756Z,8.34
2023-03-14T03:30:47.090Z,8.15
2023-03-14T03:33:13.992Z,7.99
2023-03-14T03:36:03.561Z,7.70
2023-03-14T03:38:30.700Z,7.33
2023-03-14T03:41:03.839Z,7.44
2023-03-14T03:43:30.630Z,7.24
2023-03-14T03:46:03.365Z,7.47
2023-03-14T03:48:30.430Z,7.12
2023-03-14T03:50:58.378Z,7.21
2023-03-14T03:53:33.157Z,7.09
2023-03-14T03:56:00.881Z,7.16
2023-03-14T03:58:28.094Z,7.25
2023-03-14T04:00:56.419Z,7.45
2023-03-14T04:03:26.002Z,7.48
2023-03-14T04:06:05.842Z,7.45
2023-03-14T04:08:33.982Z,7.58
2023-03-14T04:11:02.382Z,7.51
2023-03-14T04:13:29.216Z,7.72
2023-03-14T04:15:57.277Z,7.68
2023-03-14T04:18:24.342Z,7.96
2023-03-14T04:20:54.723Z,8.02
2023-03-14T04:23:21.972Z,7.49
2023-03-14T04:25:50.833Z,7.75
2023-03-14T04:28:22.263Z,7.72
2023-03-14T04:30:49.106Z,7.51
2023-03-14T04:33:15.845Z,7.57
2023-03-14T04:35:42.626Z,7.36
2023-03-14T04:38:09.754Z,7.67
2023-03-14T04:40:40.441Z,7.58
2023-03-14T04:43:08.872Z,7.40
2023-03-14T04:45:35.941Z,7.32
2023-03-14T04:48:05.853Z,7.34
2023-03-14T04:50:33.613Z,7.49
2023-03-14T04:53:03.204Z,7.25
2023-03-14T04:55:30.297Z,7.36
2023-03-14T04:57:57.117Z,7.03
2023-03-14T05:00:24.177Z,7.13
2023-03-14T05:02:53.844Z,7.11
2023-03-14T05:05:20.954Z,7.04
2023-03-14T05:07:48.056Z,7.06
2023-03-14T05:10:17.564Z,7.00
2023-03-14T05:12:45.270Z,7.16
2023-03-14T05:15:12.383Z,7.24
2023-03-14T05:17:39.412Z,7.24
2023-03-14T05:20:07.098Z,7.26
2023-03-14T05:22:34.186Z,7.25
2023-03-14T05:25:01.277Z,7.04
2023-03-14T05:27:28.387Z,7.11
2023-03-14T05:29:55.433Z,7.14
2023-03-14T05:32:25.051Z,6.98
2023-03-14T05:34:51.859Z,6.99
2023-03-14T05:37:20.086Z,6.97
2023-03-14T05:39:47.213Z,6.99
2023-03-14T05:42:14.288Z,7.16
2023-03-14T05:44:44.316Z,7.11
2023-03-14T05:47:13.929Z,6.93
2023-03-14T05:49:43.548Z,7.12
2023-03-14T05:52:13.318Z,6.91
2023-03-14T05:54:40.003Z,6.96
2023-03-14T05:57:09.593Z,6.84
2023-03-14T05:59:36.639Z,6.76
2023-03-14T06:02:03.729Z,6.74
2023-03-14T06:04:31.673Z,6.67
2023-03-14T06:06:58.790Z,6.59
2023-03-14T06:09:26.267Z,6.46
2023-03-14T06:11:53.286Z,6.43
2023-03-14T06:14:20.077Z,6.43
2023-03-14T06:16:47.238Z,6.42
2023-03-14T06:19:13.996Z,6.45
2023-03-14T06:21:40.780Z,6.43
2023-03-14T06:24:08.056Z,6.56
2023-03-14T06:26:35.081Z,6.46
2023-03-14T06:29:02.309Z,6.44
2023-03-14T06:31:29.329Z,6.49
2023-03-14T06:33:56.099Z,6.34
2023-03-14T06:36:23.364Z,6.32
2023-03-14T06:38:50.409Z,6.26
2023-03-14T06:41:17.087Z,6.28
2023-03-14T06:43:43.821Z,6.31
2023-03-14T06:46:10.564Z,6.25
2023-03-14T06:48:37.474Z,6.10
2023-03-14T06:51:05.648Z,6.09
2023-03-14T06:53:32.762Z,6.02
2023-03-14T06:55:59.469Z,6.10
2023-03-14T06:58:26.327Z,6.13
2023-03-14T07:00:54.317Z,6.30
2023-03-14T07:03:22.827Z,6.33
2023-03-14T07:05:50.847Z,6.29
2023-03-14T07:08:20.414Z,6.41
2023-03-14T07:10:47.236Z,6.41
2023-03-14T07:13:16.747Z,6.32
2023-03-14T07:15:43.977Z,6.25
2023-03-14T07:18:11.033Z,6.23
2023-03-14T07:20:37.833Z,6.28
2023-03-14T07:23:04.975Z,6.30
2023-03-14T07:25:33.018Z,6.28
2023-03-14T07:27:59.719Z,6.25
2023-03-14T07:30:26.874Z,6.35
2023-03-14T07:32:54.382Z,6.22
2023-03-14T07:35:22.683Z,6.25
2023-03-14T07:37:53.162Z,6.18
2023-03-14T07:40:22.142Z,6.25
2023-03-14T07:42:51.831Z,6.07
2023-03-14T07:45:19.540Z,6.10
2023-03-14T07:47:46.414Z,6.06
2023-03-14T07:50:13.391Z,6.00
2023-03-14T07:52:40.101Z,6.02
2023-03-14T07:55:07.198Z,6.13
2023-03-14T07:57:34.440Z,5.98
2023-03-14T08:00:01.161Z,6.06
2023-03-14T08:02:28.635Z,6.37
2023-03-14T08:04:56.666Z,6.31
2023-03-14T08:07:23.394Z,6.64
2023-03-14T08:09:50.629Z,6.36
2023-03-14T08:12:17.436Z,6.32
2023-03-14T08:14:44.486Z,6.30
2023-03-14T08:17:12.014Z,6.19
2023-03-14T08:19:45.494Z,6.42
2023-03-14T08:22:12.240Z,6.36
2023-03-14T08:24:39.098Z,6.37
2023-03-14T08:27:07.402Z,6.31
2023-03-14T08:29:35.509Z,6.35
2023-03-14T08:32:05.344Z,6.26
2023-03-14T08:34:37.632Z,6.11
2023-03-14T08:37:19.641Z,6.25
2023-03-14T08:39:52.664Z,6.47
2023-03-14T08:42:20.105Z,6.17
2023-03-14T08:44:47.298Z,6.09
2023-03-14T08:47:15.150Z,6.28
2023-03-14T08:49:41.956Z,6.10
2023-03-14T08:52:08.854Z,6.07
2023-03-14T08:54:38.434Z,6.31
2023-03-14T08:57:06.423Z,6.20
2023-03-14T08:59:37.212Z,6.23
2023-03-14T09:02:04.559Z,6.22
2023-03-14T09:04:32.082Z,6.09
2023-03-14T09:07:00.015Z,6.33
2023-03-14T09:09:27.341Z,6.48
2023-03-14T09:11:54.320Z,6.50
2023-03-14T09:14:25.285Z,6.16
2023-03-14T09:16:53.459Z,6.09
2023-03-14T09:19:22.211Z,6.03
2023-03-14T09:21:48.878Z,6.17
2023-03-14T09:24:16.020Z,6.03
2023-03-14T09:26:45.778Z,6.00
2023-03-14T09:29:15.543Z,6.11
2023-03-14T09:31:44.373Z,6.14
2023-03-14T09:34:11.520Z,6.19
2023-03-14T09:36:38.251Z,6.34
2023-03-14T09:39:05.568Z,6.34
2023-03-14T09:41:36.989Z,6.38
2023-03-14T09:44:17.617Z,6.30
2023-03-14T09:46:47.497Z,6.22
2023-03-14T09:49:27.963Z,6.33
2023-03-14T09:51:55.611Z,6.28
2023-03-14T09:54:31.302Z,6.38
2023-03-14T09:56:58.092Z,6.30
2023-03-14T09:59:44.221Z,6.33
2023-03-14T10:02:24.771Z,6.34
2023-03-14T10:04:53.352Z,6.26
2023-03-14T10:07:29.285Z,6.21
2023-03-14T10:09:56.023Z,6.08
2023-03-14T10:12:34.811Z,6.06
2023-03-14T10:15:10.075Z,6.11
2023-03-14T10:17:42.214Z,6.06
2023-03-14T10:20:28.629Z,6.12
2023-03-14T10:22:55.412Z,6.02
2023-03-14T10:25:28.483Z,5.99
2023-03-14T10:27:55.290Z,5.90
2023-03-14T10:30:40.989Z,6.00
2023-03-14T10:33:28.703Z,6.24
2023-03-14T10:36:07.875Z,6.24
2023-03-14T10:38:35.856Z,6.36
2023-03-14T10:41:02.673Z,6.38
2023-03-14T10:43:53.122Z,6.33
2023-03-14T10:46:20.129Z,6.44
2023-03-14T10:48:46.912Z,6.19
2023-03-14T10:51:20.366Z,6.46
2023-03-14T10:54:13.987Z,6.45
2023-03-14T10:56:41.269Z,6.64
2023-03-14T10:59:12.033Z,6.66
2023-03-14T11:02:05.030Z,6.53
2023-03-14T11:04:40.730Z,6.54
2023-03-14T11:07:16.288Z,6.47
2023-03-14T11:10:16.237Z,6.36
2023-03-14T11:13:08.778Z,6.43
2023-03-14T11:15:42.930Z,6.62
2023-03-14T11:18:37.757Z,6.54
2023-03-14T11:21:21.853Z,6.69
2023-03-14T11:23:56.106Z,6.61
2023-03-14T11:26:44.349Z,6.68
2023-03-14T11:29:37.873Z,6.44
2023-03-14T11:32:13.547Z,4.32
2023-03-14T11:34:54.854Z,3.20
2023-03-14T11:37:34.097Z,2.69
2023-03-14T11:40:18.048Z,3.19
2023-03-14T11:42:45.479Z,3.47
2023-03-14T11:45:19.916Z,3.63
2023-03-14T11:47:47.965Z,3.88
2023-03-14T11:50:29.315Z,4.09
2023-03-14T11:53:09.260Z,4.74
2023-03-14T11:55:36.815Z,5.20
2023-03-14T11:58:35.085Z,6.34
2023-03-14T12:01:04.802Z,6.22
2023-03-14T12:03:42.259Z,6.63
2023-03-14T12:06:18.077Z,6.58
2023-03-14T12:08:47.602Z,6.71
2023-03-14T12:11:51.868Z,6.75
2023-03-14T12:14:37.662Z,7.51
2023-03-14T12:17:13.849Z,7.71
2023-03-14T12:19:41.093Z,7.97
2023-03-14T12:22:13.863Z,7.98
2023-03-14T12:24:45.185Z,8.36
2023-03-14T12:27:12.828Z,9.19
2023-03-14T12:29:58.768Z,7.80
2023-03-14T12:32:25.678Z,7.73
2023-03-14T12:34:52.493Z,7.20
2023-03-14T12:37:27.037Z,7.43
2023-03-14T12:40:16.106Z,7.91
2023-03-14T12:43:02.503Z,8.57
2023-03-14T12:45:33.230Z,8.34
2023-03-14T12:48:09.701Z,8.07
2023-03-14T12:50:56.219Z,7.88
2023-03-14T12:53:32.262Z,8.26
2023-03-14T12:56:01.587Z,8.02
2023-03-14T12:58:34.395Z,8.38
2023-03-14T13:01:02.309Z,8.91
2023-03-14T13:03:51.112Z,8.60
2023-03-14T13:06:46.035Z,8.73
2023-03-14T13:09:52.654Z,8.95
2023-03-14T13:12:19.470Z,8.79
2023-03-14T13:14:47.947Z,8.66
2023-03-14T13:17:35.472Z,8.75
2023-03-14T13:20:06.517Z,9.28
2023-03-14T13:22:34.831Z,9.61
2023-03-14T13:25:05.933Z,9.27
2023-03-14T13:27:34.267Z,9.13
2023-03-14T13:30:07.216Z,8.94
2023-03-14T13:32:34.007Z,9.30
2023-03-14T13:35:01.116Z,9.03
2023-03-14T13:37:27.991Z,8.76
2023-03-14T13:39:57.865Z,8.24
2023-03-14T13:42:29.133Z,7.83
2023-03-14T13:45:07.791Z,8.12
2023-03-14T13:47:37.752Z,7.69
2023-03-14T13:50:04.663Z,8.09
2023-03-14T13:52:38.524Z,7.75
2023-03-14T13:55:08.696Z,7.64
2023-03-14T13:57:49.505Z,7.68
2023-03-14T14:00:22.359Z,8.38
2023-03-14T14:02:49.414Z,8.08
2023-03-14T14:05:16.252Z,8.10
2023-03-14T14:07:43.946Z,7.96
2023-03-14T14:10:13.695Z,7.76
2023-03-14T14:12:54.184Z,7.80
2023-03-14T14:15:23.583Z,8.54
2023-03-14T14:17:55.783Z,8.66
2023-03-14T14:20:33.120Z,8.11
2023-03-14T14:23:01.889Z,8.02
2023-03-14T14:25:29.952Z,7.56
2023-03-14T14:27:57.194Z,6.69
2023-03-14T14:30:32.675Z,6.46
2023-03-14T14:33:19.685Z,6.34
2023-03-14T14:35:55.365Z,6.43
2023-03-14T14:38:22.311Z,6.32
2023-03-14T14:40:50.753Z,6.29
2023-03-14T14:43:19.604Z,6.31
2023-03-14T14:45:46.587Z,6.28
2023-03-14T14:48:13.914Z,6.37
2023-03-14T14:50:48.940Z,6.22
2023-03-14T14:53:48.062Z,6.44
2023-03-14T14:56:20.006Z,6.20
2023-03-14T14:58:47.346Z,6.44
2023-03-14T15:01:22.656Z,6.53
2023-03-14T15:03:52.103Z,6.25
2023-03-14T15:06:18.849Z,6.61
2023-03-14T15:08:46.838Z,6.46
2023-03-14T15:11:24.210Z,6.29
2023-03-14T15:13:57.583Z,6.26
2023-03-14T15:16:28.786Z,6.46
2023-03-14T15:18:56.895Z,6.69
2023-03-14T15:21:24.173Z,6.54
2023-03-14T15:23:50.917Z,6.19
2023-03-14T15:26:19.713Z,6.30
2023-03-14T15:28:46.573Z,6.14
2023-03-14T15:31:17.362Z,6.29
2023-03-14T15:33:45.503Z,6.54
2023-03-14T15:36:34.390Z,6.72
2023-03-14T15:39:01.389Z,6.91
2023-03-14T15:41:28.318Z,6.89
2023-03-14T15:43:55.351Z,7.10
2023-03-14T15:46:23.112Z,7.38
2023-03-14T15:48:51.033Z,7.03
2023-03-14T15:51:19.247Z,6.98
2023-03-14T15:53:45.965Z,6.56
2023-03-14T15:56:14.483Z,6.37
2023-03-14T15:58:41.415Z,6.59
2023-03-14T16:01:09.227Z,6.72
2023-03-14T16:03:36.218Z,6.77
2023-03-14T16:06:03.217Z,6.89
2023-03-14T16:08:30.482Z,6.60
2023-03-14T16:10:59.003Z,6.89
2023-03-14T16:13:26.823Z,7.01
2023-03-14T16:15:55.267Z,6.87
2023-03-14T16:18:22.447Z,6.80
2023-03-14T16:20:53.651Z,6.95
2023-03-14T16:23:20.790Z,6.85
2023-03-14T16:25:47.540Z,6.95
2023-03-14T16:28:14.458Z,7.35
2023-03-14T16:30:41.274Z,7.45
2023-03-14T16:33:12.243Z,7.82
2023-03-14T16:35:40.192Z,7.69
2023-03-14T16:38:06.895Z,6.99
2023-03-14T16:40:33.584Z,6.64
2023-03-14T16:45:47.423Z,6.39
2023-03-14T16:48:14.175Z,7.00
2023-03-14T16:50:41.877Z,7.28
2023-03-14T16:53:11.616Z,7.10
2023-03-14T16:55:41.545Z,6.84
2023-03-14T16:58:08.462Z,6.76
2023-03-14T17:00:36.396Z,6.77
2023-03-14T17:03:03.585Z,6.81
2023-03-14T17:05:30.423Z,6.67
2023-03-14T17:07:57.207Z,6.73
2023-03-14T17:10:24.214Z,7.21
2023-03-14T17:12:52.225Z,7.04
2023-03-14T17:15:19.990Z,7.30
2023-03-14T17:17:46.682Z,6.89
2023-03-14T17:20:13.438Z,6.86
2023-03-14T17:22:40.393Z,6.85
2023-03-14T17:25:08.463Z,6.55
2023-03-14T17:27:36.175Z,6.77
2023-03-14T17:30:04.703Z,6.73
2023-03-14T17:32:31.505Z,6.64
2023-03-14T17:34:58.750Z,6.78
2023-03-14T17:37:26.733Z,6.44
2023-03-14T17:39:53.415Z,6.58
2023-03-14T17:42:20.457Z,6.39
2023-03-14T17:44:47.488Z,6.75
2023-03-14T17:47:14.832Z,6.56
2023-03-14T17:49:41.868Z,6.35
2023-03-14T17:52:08.597Z,6.71
2023-03-14T17:54:36.359Z,6.40
2023-03-14T17:57:03.188Z,6.25
2023-03-14T17:59:29.946Z,6.22
2023-03-14T18:01:56.812Z,6.08
2023-03-14T18:04:24.021Z,6.01
2023-03-14T18:06:51.916Z,5.95
2023-03-14T18:09:19.075Z,5.81
2023-03-14T18:11:47.117Z,5.77
2023-03-14T18:14:14.122Z,5.58
2023-03-14T18:16:40.836Z,5.69
2023-03-14T18:19:07.618Z,5.80
2023-03-14T18:21:34.502Z,5.95
2023-03-14T18:24:01.213Z,5.85
2023-03-14T18:26:27.959Z,6.16
2023-03-14T18:28:55.259Z,5.79
2023-03-14T18:31:22.331Z,5.89
2023-03-14T18:33:49.976Z,6.04
2023-03-14T18:36:16.902Z,6.23
2023-03-14T18:38:45.114Z,6.05
2023-03-14T18:41:13.467Z,6.06
2023-03-14T18:43:40.297Z,5.88
2023-03-14T18:46:06.987Z,5.79
2023-03-14T18:48:34.383Z,5.63
2023-03-14T18:51:01.234Z,5.69
2023-03-14T18:53:27.992Z,5.51
2023-03-14T18:55:55.351Z,5.87
2023-03-14T18:58:22.770Z,6.08
2023-03-14T19:00:49.672Z,6.16
2023-03-14T19:03:16.803Z,5.69
2023-03-14T19:05:44.219Z,5.75
2023-03-14T19:08:12.366Z,5.58
2023-03-14T19:10:39.479Z,5.26
2023-03-14T19:13:06.813Z,5.44
2023-03-14T19:15:33.888Z,5.43
2023-03-14T19:18:00.761Z,5.67
2023-03-14T19:20:27.547Z,5.50
2023-03-14T19:22:54.450Z,5.51
2023-03-14T19:25:21.174Z,5.52
2023-03-14T19:27:47.891Z,5.64
2023-03-14T19:30:14.858Z,5.53
2023-03-14T19:32:44.547Z,5.60
2023-03-14T19:35:11.269Z,5.55
2023-03-14T19:37:39.948Z,5.82
2023-03-14T19:40:09.294Z,6.06
2023-03-14T19:42:37.098Z,6.26
2023-03-14T19:45:04.235Z,5.96
2023-03-14T19:47:32.241Z,5.78
2023-03-14T19:49:58.950Z,5.50
2023-03-14T19:52:25.805Z,5.53
2023-03-14T19:54:52.737Z,5.33
2023-03-14T19:57:19.824Z,5.12
2023-03-14T19:59:47.940Z,5.28
2023-03-14T20:02:14.697Z,5.21
2023-03-14T20:04:41.541Z,5.64
2023-03-14T20:07:08.477Z,5.27
2023-03-14T20:09:35.807Z,5.38
2023-03-14T20:12:02.510Z,5.55
2023-03-14T20:14:29.230Z,5.45
2023-03-14T20:16:56.386Z,6.09
2023-03-14T20:19:23.279Z,5.95
2023-03-14T20:21:50.395Z,6.00
2023-03-14T20:24:22.842Z,5.72
2023-03-14T20:26:49.613Z,6.13
2023-03-14T20:29:16.370Z,6.43
2023-03-14T20:31:43.081Z,6.34
2023-03-14T20:34:12.805Z,6.38
2023-03-14T20:36:39.681Z,6.17
2023-03-14T20:39:06.354Z,6.53
2023-03-14T20:41:36.019Z,6.54
2023-03-14T20:44:06.931Z,6.76
2023-03-14T20:46:55.655Z,6.13
2023-03-14T20:49:22.988Z,6.10
2023-03-14T20:51:52.769Z,6.29
2023-03-14T20:54:22.428Z,6.59
2023-03-14T20:56:52.087Z,6.76
2023-03-14T20:59:21.494Z,6.43
2023-03-14T21:01:49.394Z,6.43
2023-03-14T21:04:16.283Z,6.53
2023-03-14T21:06:43.531Z,6.78
2023-03-14T21:09:13.238Z,6.59
2023-03-14T21:11:42.723Z,6.68
2023-03-14T21:14:10.292Z,6.21
2023-03-14T21:16:37.743Z,6.23
2023-03-14T21:19:06.052Z,6.33
2023-03-14T21:21:33.438Z,6.32
2023-03-14T21:24:00.136Z,6.22
2023-03-14T21:26:27.689Z,5.63
2023-03-14T21:28:55.181Z,6.22
2023-03-14T21:31:26.866Z,5.84
2023-03-14T21:33:55.668Z,5.46
2023-03-14T21:36:23.646Z,5.86
2023-03-14T21:38:50.557Z,6.13
2023-03-14T21:41:19.339Z,6.62
2023-03-14T21:43:47.188Z,6.66
2023-03-14T21:46:14.480Z,6.73
2023-03-14T21:48:41.609Z,6.96
2023-03-14T21:51:08.388Z,7.36
2023-03-14T21:53:35.483Z,7.40
2023-03-14T21:56:02.311Z,6.75
2023-03-14T21:58:29.065Z,7.04
2023-03-14T22:01:01.270Z,7.20
2023-03-14T22:03:28.250Z,6.51
2023-03-14T22:05:55.137Z,6.78
2023-03-14T22:08:22.269Z,6.75
2023-03-14T22:10:50.539Z,5.98
2023-03-14T22:13:17.433Z,6.00
2023-03-14T22:15:45.891Z,5.86
2023-03-14T22:18:13.835Z,6.15
2023-03-14T22:23:34.256Z,5.89
2023-03-14T22:26:01.395Z,5.62
2023-03-14T22:28:28.958Z,5.38
2023-03-14T22:30:55.662Z,5.32
2023-03-14T22:33:22.513Z,5.29
2023-03-14T22:35:51.765Z,5.44
2023-03-14T22:38:19.007Z,5.53
2023-03-14T22:40:47.319Z,5.44
2023-03-14T22:43:15.172Z,5.51
2023-03-14T22:45:41.967Z,5.43
2023-03-14T22:48:08.693Z,5.21
2023-03-14T22:50:37.405Z,5.28
2023-03-14T22:53:07.110Z,5.15
2023-03-14T22:55:36.582Z,4.11
2023-03-14T22:58:03.493Z,3.93
2023-03-14T23:00:30.331Z,4.07
2023-03-14T23:03:00.005Z,4.43
2023-03-14T23:05:26.758Z,4.64
2023-03-14T23:07:56.142Z,4.64
2023-03-14T23:10:23.661Z,5.03
2023-03-14T23:12:50.617Z,4.92
2023-03-14T23:15:17.894Z,5.09
2023-03-14T23:17:44.758Z,5.36
2023-03-14T23:20:12.283Z,4.59
2023-03-14T23:22:38.964Z,4.78
2023-03-14T23:25:07.478Z,5.42
2023-03-14T23:27:34.426Z,4.91
2023-03-14T23:30:01.270Z,5.15
2023-03-14T23:32:28.406Z,5.21
2023-03-14T23:34:55.488Z,5.15
2023-03-14T23:37:22.225Z,5.38
2023-03-14T23:39:50.166Z,5.31
2023-03-14T23:42:17.090Z,5.02
2023-03-14T23:44:44.170Z,4.63
2023-03-14T23:47:11.024Z,4.62
2023-03-14T23:49:37.865Z,4.73
2023-03-14T23:52:05.712Z,4.67
2023-03-14T23:54:32.484Z,4.79
2023-03-14T23:56:59.154Z,4.72
2023-03-14T23:59:26.712Z,4.79
